Time;durP1;ratioP1;P1;durP2;ratioP2;P2;SDS_P1;SDS_P2;PMS_P1;PMS_P2;Temp;Humidity;BMP_temperature;BMP_pressure;BME280_temperature;BME280_humidity;BME280_pressure;Samples;Min_cycle;Max_cycle;Signal;HPM_P1;HPM_P2
2023/09/17 00:00:59;;;;;;;4.22;3.20;;;;;;;-145.69;62.37;52087.94;5133107;27;20639;-83
2023/09/17 00:03:25;;;;;;;3.88;2.80;;;;;;;-145.69;62.18;52060.22;5124941;27;20204;-82
2023/09/17 00:05:52;;;;;;;4.57;2.97;;;;;;;-145.69;63.75;52089.91;5113240;27;20556;-83
2023/09/17 00:08:19;;;;;;;6.32;2.90;;;;;;;-145.69;63.94;52064.16;5114557;28;20212;-82
2023/09/17 00:10:45;;;;;;;5.80;3.28;;;;;;;-145.69;63.72;52076.03;5117371;27;20242;-83
2023/09/17 00:13:12;;;;;;;5.00;2.90;;;;;;;-145.69;64.87;52068.13;5133761;27;20288;-83
2023/09/17 00:15:39;;;;;;;3.90;2.80;;;;;;;-145.69;64.23;52068.13;5133779;27;20224;-81
2023/09/17 00:18:07;;;;;;;5.13;3.50;;;;;;;-145.69;64.34;52105.75;5133932;27;20234;-82
2023/09/17 00:20:34;;;;;;;4.97;3.28;;;;;;;-145.69;64.63;52115.66;5123664;27;20193;-82
2023/09/17 00:23:01;;;;;;;4.97;3.40;;;;;;;-145.69;64.47;52117.63;5113290;28;20201;-82
2023/09/17 00:25:28;;;;;;;7.47;3.60;;;;;;;-145.69;64.74;52107.72;5113115;28;20660;-83
2023/09/17 00:27:55;;;;;;;4.65;2.95;;;;;;;-145.69;65.48;52103.78;5113664;28;20208;-83
2023/09/17 00:30:21;;;;;;;4.90;3.33;;;;;;;-145.69;65.27;52087.94;5127470;28;20197;-83
2023/09/17 00:32:48;;;;;;;4.70;3.53;;;;;;;-145.69;65.04;52109.72;5133929;27;20203;-82
2023/09/17 00:35:16;;;;;;;4.43;3.10;;;;;;;-145.69;65.21;52093.88;5133803;27;20230;-82
2023/09/17 00:37:43;;;;;;;3.92;2.95;;;;;;;-145.69;65.58;52095.84;5126935;27;20679;-83
2023/09/17 00:40:11;;;;;;;4.15;2.88;;;;;;;-145.69;65.55;52095.84;5113320;28;20212;-82
2023/09/17 00:42:37;;;;;;;4.40;3.13;;;;;;;-145.69;65.44;52121.59;5113332;28;20209;-81
2023/09/17 00:45:05;;;;;;;5.95;3.25;;;;;;;-145.69;65.67;52127.53;5116794;28;20207;-82
2023/09/17 00:47:32;;;;;;;4.95;3.53;;;;;;;-145.69;65.75;52103.78;5117370;28;20236;-83
2023/09/17 00:50:01;;;;;;;5.70;3.40;;;;;;;-145.69;65.79;52111.69;5121331;27;20191;-83
2023/09/17 00:52:30;;;;;;;4.70;3.40;;;;;;;-145.69;65.67;52101.78;5137866;27;20249;-83
2023/09/17 00:54:57;;;;;;;4.57;3.20;;;;;;;-145.69;66.08;52111.69;5137876;27;20605;-83
2023/09/17 00:57:24;;;;;;;4.45;3.15;;;;;;;-145.69;65.85;52095.84;5137896;27;20287;-83
2023/09/17 00:59:50;;;;;;;5.13;3.25;;;;;;;-145.69;66.55;52103.78;5127833;27;20213;-83
2023/09/17 01:02:19;;;;;;;5.15;3.10;;;;;;;-145.69;66.03;52123.56;5135202;27;20200;-83
2023/09/17 01:04:49;;;;;;;8.15;3.67;;;;;;;-145.69;66.54;52133.47;5137287;27;20287;-82
2023/09/17 01:07:16;;;;;;;6.30;3.50;;;;;;;-145.69;66.83;52103.78;5124951;27;20205;-83
2023/09/17 01:09:44;;;;;;;5.57;3.47;;;;;;;-145.69;66.74;52139.41;5135840;27;20200;-83
2023/09/17 01:12:11;;;;;;;5.95;3.72;;;;;;;-145.69;66.78;52093.88;5131582;27;20636;-83
2023/09/17 01:14:38;;;;;;;4.60;3.20;;;;;;;-145.69;66.76;52117.63;5116699;28;20248;-83
2023/09/17 01:17:08;;;;;;;4.32;3.10;;;;;;;-145.69;66.60;52133.47;5116657;28;20241;-82
2023/09/17 01:19:35;;;;;;;4.95;3.78;;;;;;;-145.69;66.68;52083.97;5108115;27;20206;-84
2023/09/17 01:22:08;;;;;;;8.30;3.47;;;;;;;-145.69;67.19;52099.81;5096395;28;20202;-83
2023/09/17 01:24:40;;;;;;;5.93;3.40;;;;;;;-145.69;67.10;52091.88;5126536;27;20655;-83
2023/09/17 01:27:10;;;;;;;4.82;3.28;;;;;;;-145.69;67.57;52121.59;5134295;27;20565;-84
2023/09/17 01:29:38;;;;;;;4.78;3.67;;;;;;;-145.69;67.31;52111.69;5136578;27;20708;-83
2023/09/17 01:32:05;;;;;;;8.13;3.45;;;;;;;-145.69;67.05;52111.69;5137141;27;20211;-83
2023/09/17 01:34:32;;;;;;;6.72;3.70;;;;;;;-145.69;66.98;52107.72;5120292;27;20197;-83
2023/09/17 01:37:03;;;;;;;6.00;3.63;;;;;;;-145.69;67.18;52119.63;5116106;27;20483;-83
2023/09/17 01:39:35;;;;;;;6.10;3.88;;;;;;;-145.69;67.08;52117.63;5115042;28;20636;-83
2023/09/17 01:42:05;;;;;;;5.72;3.53;;;;;;;-145.69;66.95;52099.81;5116063;27;20208;-84
2023/09/17 01:44:34;;;;;;;3.28;2.63;;;;;;;-145.69;66.95;52111.69;5117397;27;20212;-82
2023/09/17 01:47:03;;;;;;;5.75;3.88;;;;;;;-145.69;67.15;52101.78;5116654;28;20205;-83
2023/09/17 01:49:32;;;;;;;7.68;3.30;;;;;;;-145.69;67.58;52093.88;5116307;28;20570;-83
2023/09/17 01:51:59;;;;;;;4.47;3.53;;;;;;;-145.69;67.36;52111.69;5116377;28;20602;-84
2023/09/17 01:54:26;;;;;;;4.50;3.47;;;;;;;-145.69;67.29;52109.72;5116075;28;20197;-83
2023/09/17 01:56:52;;;;;;;5.72;3.30;;;;;;;-145.69;67.29;52133.47;5115687;28;20232;-84
2023/09/17 01:59:19;;;;;;;5.60;3.47;;;;;;;-145.69;67.77;52135.47;5119765;27;20200;-84
2023/09/17 02:01:47;;;;;;;5.68;3.65;;;;;;;-145.69;67.45;52103.78;5134809;27;20196;-84
2023/09/17 02:04:14;;;;;;;6.55;3.08;;;;;;;-145.69;67.57;52131.50;5136089;27;20220;-83
2023/09/17 02:06:40;;;;;;;7.72;3.20;;;;;;;-145.69;67.96;52139.41;5136231;27;20204;-84
2023/09/17 02:09:08;;;;;;;7.43;3.90;;;;;;;-145.69;67.96;52147.34;5136518;27;20438;-83
2023/09/17 02:11:35;;;;;;;4.43;3.10;;;;;;;-145.69;67.88;52115.66;5135815;27;20296;-82
2023/09/17 02:14:02;;;;;;;5.20;3.60;;;;;;;-145.69;68.12;52087.94;5136296;27;20196;-84
2023/09/17 02:16:29;;;;;;;5.70;3.65;;;;;;;-145.69;68.47;52143.38;5136333;27;20264;-84
2023/09/17 02:18:57;;;;;;;6.38;3.00;;;;;;;-145.69;68.37;52143.38;5135977;27;20319;-84
2023/09/17 02:21:24;;;;;;;5.68;3.53;;;;;;;-145.69;68.29;52123.56;5136224;27;20196;-84
2023/09/17 02:23:51;;;;;;;8.68;3.70;;;;;;;-145.69;68.87;52105.75;5136149;27;20667;-84
2023/09/17 02:26:18;;;;;;;5.50;3.88;;;;;;;-145.69;69.20;52119.63;5136019;27;20203;-83
2023/09/17 02:28:46;;;;;;;8.85;3.97;;;;;;;-145.69;68.88;52119.63;5136195;27;20205;-83
2023/09/17 02:31:13;;;;;;;7.70;4.13;;;;;;;-145.69;69.02;52111.69;5122863;27;20196;-82
2023/09/17 02:33:40;;;;;;;6.00;3.45;;;;;;;-145.69;68.96;52135.47;5116159;27;20220;-84
2023/09/17 02:36:08;;;;;;;4.90;3.63;;;;;;;-145.69;68.62;52125.56;5115148;28;20710;-82
2023/09/17 02:38:34;;;;;;;7.57;3.45;;;;;;;-145.69;68.66;52135.47;5114938;28;20205;-83
2023/09/17 02:41:03;;;;;;;5.88;3.47;;;;;;;-145.69;68.62;52111.69;5114968;28;20205;-84
2023/09/17 02:43:29;;;;;;;4.05;3.05;;;;;;;-145.69;68.20;52082.00;5115270;28;20258;-84
2023/09/17 02:45:56;;;;;;;4.22;3.53;;;;;;;-145.69;67.63;52093.88;5114758;28;20197;-84
2023/09/17 02:48:23;;;;;;;6.25;3.60;;;;;;;-145.69;67.50;52097.84;5114630;28;20223;-84
2023/09/17 02:50:50;;;;;;;5.68;3.05;;;;;;;-145.69;67.76;52133.47;5114827;28;20652;-84
2023/09/17 02:53:18;;;;;;;7.63;3.30;;;;;;;-145.69;67.76;52109.72;5114463;28;20240;-84
2023/09/17 02:55:46;;;;;;;8.05;3.78;;;;;;;-145.69;67.70;52135.47;5114985;28;20313;-84
2023/09/17 02:58:13;;;;;;;6.35;3.25;;;;;;;-145.69;67.65;52103.78;5115029;27;20227;-85
2023/09/17 03:00:40;;;;;;;5.55;3.53;;;;;;;-145.69;67.85;52107.72;5115568;27;20651;-83
2023/09/17 03:03:06;;;;;;;4.65;2.92;;;;;;;-145.69;67.73;52131.50;5094348;28;20194;-84
2023/09/17 03:05:33;;;;;;;4.95;3.40;;;;;;;-145.69;67.53;52103.78;5094251;28;20202;-85
2023/09/17 03:08:02;;;;;;;5.25;3.55;;;;;;;-145.69;67.03;52099.81;5093195;28;20661;-84
2023/09/17 03:10:30;;;;;;;4.75;3.25;;;;;;;-145.69;66.93;52105.75;5106544;28;20194;-84
2023/09/17 03:12:59;;;;;;;4.18;3.08;;;;;;;-145.69;67.13;52107.72;5114744;28;20216;-85
2023/09/17 03:15:26;;;;;;;5.95;2.83;;;;;;;-145.69;67.22;52131.50;5114708;28;20245;-83
2023/09/17 03:17:52;;;;;;;5.20;3.00;;;;;;;-145.69;67.10;52117.63;5113798;28;20229;-83
2023/09/17 03:20:22;;;;;;;5.10;3.00;;;;;;;-145.69;67.10;52123.56;5114476;28;20233;-84
2023/09/17 03:22:51;;;;;;;7.03;3.25;;;;;;;-145.69;66.90;52107.72;5113608;27;20206;-84
2023/09/17 03:25:18;;;;;;;4.38;2.60;;;;;;;-145.69;66.16;52087.94;5114433;28;20201;-85
2023/09/17 03:27:46;;;;;;;4.80;3.08;;;;;;;-145.69;66.11;52087.94;5114001;28;20201;-84
2023/09/17 03:30:16;;;;;;;6.15;3.10;;;;;;;-145.69;66.11;52101.78;5116454;27;20224;-84
2023/09/17 03:32:46;;;;;;;6.90;2.78;;;;;;;-145.69;65.96;52119.63;5116881;27;20699;-83
2023/09/17 03:35:13;;;;;;;7.13;3.35;;;;;;;-145.69;65.84;52083.97;5113906;28;20208;-84
2023/09/17 03:37:39;;;;;;;6.22;2.80;;;;;;;-145.69;65.60;52091.88;5114241;28;20305;-84
2023/09/17 03:40:11;;;;;;;4.30;2.58;;;;;;;-145.69;65.91;52060.22;5114224;28;20200;-84
2023/09/17 03:42:38;;;;;;;5.20;3.08;;;;;;;-145.69;65.86;52099.81;5114405;27;20197;-85
2023/09/17 03:45:09;;;;;;;8.00;2.97;;;;;;;-145.69;66.52;52080.00;5114319;28;20250;-85
2023/09/17 03:47:36;;;;;;;9.73;3.50;;;;;;;-145.69;66.96;52113.66;5112833;28;20598;-84
2023/09/17 03:50:04;;;;;;;6.68;2.83;;;;;;;-145.69;67.32;52129.50;5117418;27;20192;-85
2023/09/17 03:52:30;;;;;;;8.60;2.90;;;;;;;-145.69;67.53;52105.75;5134638;27;20366;-85
2023/09/17 03:55:05;;;;;;;3.63;2.70;;;;;;;-145.69;67.43;52153.28;5134069;27;20540;-84
2023/09/17 03:57:33;;;;;;;4.40;2.63;;;;;;;-145.69;67.78;52139.41;5134324;27;20208;-84
2023/09/17 04:00:00;;;;;;;5.45;2.90;;;;;;;-145.69;67.69;52127.53;5134339;27;20211;-85
2023/09/17 04:02:28;;;;;;;5.45;3.20;;;;;;;-145.69;68.33;52111.69;5118107;27;20197;-85
2023/09/17 04:04:55;;;;;;;5.72;2.97;;;;;;;-145.69;68.27;52143.38;5114019;28;20198;-85
2023/09/17 04:07:23;;;;;;;11.05;2.72;;;;;;;-145.69;68.12;52127.53;5113725;28;20208;-84
2023/09/17 04:09:59;;;;;;;5.95;3.08;;;;;;;-145.69;69.06;52121.59;5113853;28;20342;-85
2023/09/17 04:12:25;;;;;;;5.43;3.05;;;;;;;-145.69;69.23;52127.53;5113945;28;20273;-84
2023/09/17 04:14:57;;;;;;;5.50;2.72;;;;;;;-145.69;68.84;52131.50;5114349;28;20296;-86
2023/09/17 04:17:24;;;;;;;7.90;3.05;;;;;;;-145.69;68.85;52115.66;5113529;28;20228;-85
2023/09/17 04:19:53;;;;;;;4.72;3.10;;;;;;;-145.69;68.79;52117.63;5122614;27;20219;-85
2023/09/17 04:22:19;;;;;;;3.50;2.45;;;;;;;-145.69;68.90;52151.28;5134188;27;20275;-85
2023/09/17 04:24:46;;;;;;;7.55;2.92;;;;;;;-145.69;69.31;52129.50;5133743;27;20204;-84
2023/09/17 04:27:16;;;;;;;5.90;2.65;;;;;;;-145.69;69.12;52107.72;5133836;27;20265;-84
2023/09/17 04:29:44;;;;;;;7.93;2.90;;;;;;;-145.69;69.39;52103.78;5134249;27;20207;-85
2023/09/17 04:32:12;;;;;;;4.70;3.00;;;;;;;-145.69;69.28;52119.63;5121663;27;20204;-84
2023/09/17 04:34:38;;;;;;;4.65;2.95;;;;;;;-145.69;69.34;52123.56;5113332;28;20657;-83
2023/09/17 04:37:11;;;;;;;6.90;3.40;;;;;;;-145.69;68.81;52119.63;5113009;28;20695;-83
2023/09/17 04:39:38;;;;;;;5.22;2.78;;;;;;;-145.69;69.18;52103.78;5118159;28;20214;-83
2023/09/17 04:42:07;;;;;;;6.78;3.20;;;;;;;-145.69;69.04;52159.22;5133975;27;20207;-83
2023/09/17 04:44:36;;;;;;;5.43;2.97;;;;;;;-145.69;68.74;52137.44;5133858;27;20211;-83
2023/09/17 04:47:03;;;;;;;4.88;2.60;;;;;;;-145.69;68.55;52131.50;5133867;27;20251;-84
2023/09/17 04:49:30;;;;;;;5.03;3.15;;;;;;;-145.69;69.15;52105.75;5127198;27;20201;-83
2023/09/17 04:51:56;;;;;;;8.10;2.70;;;;;;;-145.69;68.86;52137.44;5113678;28;20233;-83
2023/09/17 04:54:24;;;;;;;7.35;3.00;;;;;;;-145.69;69.36;52113.66;5112771;28;20293;-83
2023/09/17 04:56:54;;;;;;;6.43;3.28;;;;;;;-145.69;69.66;52109.72;5113049;28;20714;-84
2023/09/17 04:59:21;;;;;;;8.43;3.22;;;;;;;-145.69;69.79;52149.31;5113546;28;20284;-84
2023/09/17 05:01:48;;;;;;;6.45;3.22;;;;;;;-145.69;69.22;52131.50;5122444;28;20204;-84
2023/09/17 05:04:15;;;;;;;10.27;3.58;;;;;;;-145.69;69.06;52151.28;5133664;27;20232;-84
2023/09/17 05:06:42;;;;;;;6.78;3.13;;;;;;;-145.69;68.92;52135.47;5132940;27;20203;-83
2023/09/17 05:09:09;;;;;;;4.78;2.63;;;;;;;-145.69;68.77;52145.34;5133244;27;20197;-84
2023/09/17 05:11:37;;;;;;;7.50;2.95;;;;;;;-145.69;68.62;52133.47;5113114;28;20217;-84
2023/09/17 05:14:03;;;;;;;5.72;3.20;;;;;;;-145.69;68.77;52125.56;5113051;28;20295;-84
2023/09/17 05:16:31;;;;;;;4.78;2.97;;;;;;;-145.69;68.47;52133.47;5112834;28;20221;-84
2023/09/17 05:18:58;;;;;;;8.43;3.53;;;;;;;-145.69;68.61;52137.44;5109467;28;20757;-84
2023/09/17 05:21:25;;;;;;;6.75;2.95;;;;;;;-145.69;68.60;52143.38;5112582;28;20435;-84
2023/09/17 05:23:51;;;;;;;5.97;2.75;;;;;;;-145.69;68.57;52131.50;5112801;28;20551;-84
2023/09/17 05:26:31;;;;;;;6.35;2.97;;;;;;;-145.69;67.63;52139.41;5114485;28;20624;-83
2023/09/17 05:28:59;;;;;;;6.05;3.08;;;;;;;-145.69;68.24;52119.63;5131577;28;20201;-83
2023/09/17 05:31:25;;;;;;;6.30;2.88;;;;;;;-145.69;67.69;52115.66;5127380;27;20597;-84
2023/09/17 05:33:57;;;;;;;5.00;2.72;;;;;;;-145.69;67.60;52127.53;5116576;27;20206;-84
2023/09/17 05:36:23;;;;;;;4.90;2.92;;;;;;;-145.69;67.56;52119.63;5127026;27;20231;-84
2023/09/17 05:38:50;;;;;;;6.85;3.17;;;;;;;-145.69;67.22;52123.56;5137232;27;20224;-82
2023/09/17 05:41:16;;;;;;;8.13;3.58;;;;;;;-145.69;66.60;52117.63;5137245;27;20374;-83
2023/09/17 05:43:43;;;;;;;5.07;2.60;;;;;;;-145.69;66.60;52105.75;5137554;27;20655;-83
2023/09/17 05:46:17;;;;;;;7.40;3.10;;;;;;;-145.69;66.25;52119.63;5137321;27;20204;-84
2023/09/17 05:48:43;;;;;;;5.78;3.00;;;;;;;-145.69;65.56;52099.81;5126146;27;20201;-83
2023/09/17 05:51:12;;;;;;;8.27;2.67;;;;;;;-145.69;65.03;52115.66;5116089;28;20247;-83
2023/09/17 05:53:39;;;;;;;4.60;2.33;;;;;;;-145.69;65.04;52072.09;5116124;28;20204;-84
2023/09/17 05:56:08;;;;;;;4.43;2.78;;;;;;;-145.69;64.74;52115.66;5115863;28;20225;-83
2023/09/17 05:58:34;;;;;;;8.05;2.97;;;;;;;-145.69;65.16;52103.78;5130754;27;20248;-83
2023/09/17 06:01:07;;;;;;;9.13;2.50;;;;;;;-145.69;64.54;52074.06;5131555;27;20736;-83
2023/09/17 06:03:36;;;;;;;6.13;2.88;;;;;;;-145.69;64.31;52082.00;5116216;27;20563;-84
2023/09/17 06:06:03;;;;;;;6.50;3.03;;;;;;;-145.69;63.54;52091.88;5116098;27;20231;-82
2023/09/17 06:08:29;;;;;;;6.28;2.70;;;;;;;-145.69;62.83;52095.84;5116128;28;20225;-83
2023/09/17 06:10:56;;;;;;;6.65;2.60;;;;;;;-145.69;63.19;52082.00;5116295;28;20201;-83
2023/09/17 06:13:23;;;;;;;6.03;2.65;;;;;;;-145.69;63.03;52082.00;5115827;28;20656;-83
2023/09/17 06:15:49;;;;;;;6.30;2.65;;;;;;;-145.69;62.46;52072.09;5116056;28;20204;-82
2023/09/17 06:18:16;;;;;;;8.50;3.10;;;;;;;-145.69;62.81;52101.78;5115976;28;20335;-83
2023/09/17 06:20:46;;;;;;;3.45;2.42;;;;;;;-145.69;62.72;52068.13;5120679;27;20199;-83
2023/09/17 06:23:15;;;;;;;4.10;2.40;;;;;;;-145.69;61.82;52074.06;5136004;27;20224;-84
2023/09/17 06:25:47;;;;;;;5.88;2.50;;;;;;;-145.69;61.23;52032.47;5136575;27;20607;-84
2023/09/17 06:28:15;;;;;;;3.60;2.47;;;;;;;-145.69;60.70;52060.22;5126995;27;20733;-84
2023/09/17 06:30:42;;;;;;;6.97;2.70;;;;;;;-145.69;60.37;52052.28;5116733;28;20201;-84
2023/09/17 06:33:09;;;;;;;3.47;2.40;;;;;;;-145.69;60.45;52060.22;5117115;27;20281;-83
2023/09/17 06:35:35;;;;;;;7.80;2.28;;;;;;;-145.69;59.50;52066.16;5123504;27;20619;-84
2023/09/17 06:38:04;;;;;;;8.63;2.45;;;;;;;-145.69;59.61;52066.16;5135488;27;20228;-84
2023/09/17 06:40:37;;;;;;;5.43;2.30;;;;;;;-145.69;59.23;52040.41;5136038;27;20232;-84
2023/09/17 06:43:08;;;;;;;5.47;2.20;;;;;;;-145.69;58.93;52032.47;5136676;27;20257;-84
2023/09/17 06:45:34;;;;;;;5.97;2.25;;;;;;;-145.69;59.06;52052.28;5136320;27;20209;-84
2023/09/17 06:48:01;;;;;;;7.97;2.58;;;;;;;-145.69;58.24;52034.47;5137408;27;20203;-83
2023/09/17 06:50:29;;;;;;;4.75;1.92;;;;;;;-145.69;58.95;52056.25;5136482;27;20251;-82
2023/09/17 06:52:56;;;;;;;5.85;2.17;;;;;;;-145.69;58.58;52068.13;5136656;27;20197;-83
2023/09/17 06:55:24;;;;;;;6.10;2.10;;;;;;;-145.69;58.57;52044.38;5137054;27;20691;-84
2023/09/17 06:57:53;;;;;;;3.45;2.40;;;;;;;-145.69;59.22;52052.28;5128773;27;20626;-83
2023/09/17 07:00:20;;;;;;;3.97;2.10;;;;;;;-145.69;59.26;52064.16;5108313;28;20190;-84
2023/09/17 07:02:51;;;;;;;4.90;2.35;;;;;;;-145.69;59.24;52034.47;5129250;27;20249;-85
2023/09/17 07:05:18;;;;;;;5.03;2.47;;;;;;;-145.69;59.21;52020.59;5135290;27;20201;-84
2023/09/17 07:07:44;;;;;;;6.35;2.40;;;;;;;-145.69;58.81;52020.59;5135233;27;20214;-84
2023/09/17 07:10:11;;;;;;;4.20;2.20;;;;;;;-145.69;58.41;52020.59;5136360;27;20235;-84
2023/09/17 07:12:39;;;;;;;5.95;2.40;;;;;;;-145.69;58.26;52022.59;5135275;27;20200;-83
2023/09/17 07:15:10;;;;;;;7.10;2.35;;;;;;;-145.69;57.89;52032.47;5135444;27;20716;-82
2023/09/17 07:17:38;;;;;;;4.60;2.28;;;;;;;-145.69;57.28;52024.56;5130430;27;20237;-83
2023/09/17 07:20:06;;;;;;;4.47;2.20;;;;;;;-145.69;56.40;52012.69;5101871;27;20209;-82
2023/09/17 07:22:33;;;;;;;7.95;2.20;;;;;;;-145.69;56.92;52014.66;5094031;28;20204;-84
2023/09/17 07:24:59;;;;;;;5.03;1.90;;;;;;;-145.69;55.94;52000.81;5094086;28;20202;-83
2023/09/17 07:27:27;;;;;;;7.80;2.15;;;;;;;-145.69;56.40;51988.91;5098674;28;20200;-83
2023/09/17 07:30:01;;;;;;;4.03;2.03;;;;;;;-145.69;55.94;51988.91;5116905;27;20652;-84
2023/09/17 07:32:28;;;;;;;5.03;2.08;;;;;;;-145.69;55.06;52032.47;5133933;27;20508;-83
2023/09/17 07:34:56;;;;;;;3.58;1.85;;;;;;;-145.69;53.38;51990.91;5135737;27;20201;-83
2023/09/17 07:37:23;;;;;;;4.18;2.13;;;;;;;-145.69;52.90;51973.06;5134454;27;20587;-83
2023/09/17 07:39:55;;;;;;;6.60;2.03;;;;;;;-145.69;51.46;52004.75;5134919;27;20204;-84
2023/09/17 07:42:31;;;;;;;4.00;1.90;;;;;;;-145.69;52.34;52008.72;5122501;27;20204;-84
2023/09/17 07:44:59;;;;;;;4.05;1.60;;;;;;;-145.69;52.24;52020.59;5113833;28;20201;-84
2023/09/17 07:47:27;;;;;;;7.43;2.15;;;;;;;-145.69;52.59;52000.81;5114280;28;20247;-84
2023/09/17 07:49:53;;;;;;;5.13;2.28;;;;;;;-145.69;53.40;52012.69;5114172;28;20243;-84
2023/09/17 07:52:24;;;;;;;8.50;2.20;;;;;;;-145.69;52.89;52022.59;5114391;28;20296;-83
2023/09/17 07:54:50;;;;;;;6.90;2.13;;;;;;;-145.69;53.67;52000.81;5113876;28;20202;-84
2023/09/17 07:57:19;;;;;;;4.57;2.05;;;;;;;-145.69;53.59;52000.81;5122978;27;20316;-83
2023/09/17 07:59:52;;;;;;;4.40;2.22;;;;;;;-145.69;53.70;51981.00;5113966;28;20205;-83
2023/09/17 08:02:20;;;;;;;3.90;2.03;;;;;;;-145.69;53.49;51996.84;5115266;27;20256;-84
2023/09/17 08:04:47;;;;;;;3.55;2.22;;;;;;;-145.69;53.20;52004.75;5112760;28;20439;-84
2023/09/17 08:07:13;;;;;;;6.63;2.20;;;;;;;-145.69;52.44;51981.00;5130602;27;20201;-84
2023/09/17 08:09:40;;;;;;;6.05;2.35;;;;;;;-145.69;51.55;51969.13;5133913;27;20226;-84
2023/09/17 08:12:07;;;;;;;5.07;1.92;;;;;;;-145.69;50.79;51953.28;5134528;27;20239;-83
2023/09/17 08:14:34;;;;;;;5.13;1.67;;;;;;;-145.69;50.26;51984.97;5134780;27;20196;-84
2023/09/17 08:17:01;;;;;;;3.80;1.83;;;;;;;-145.69;49.37;51961.19;5134448;27;20220;-83
2023/09/17 08:19:29;;;;;;;8.88;1.88;;;;;;;-145.69;48.29;51949.31;5134832;27;20291;-83
2023/09/17 08:21:56;;;;;;;4.63;1.85;;;;;;;-145.69;46.43;51933.47;5135112;27;20559;-84
2023/09/17 08:24:25;;;;;;;3.53;1.50;;;;;;;-145.69;44.49;51961.19;5134572;27;20227;-83
2023/09/17 08:26:52;;;;;;;3.25;1.60;;;;;;;-145.69;44.35;51931.50;5125997;27;20189;-83
2023/09/17 08:29:19;;;;;;;2.63;1.63;;;;;;;-145.69;43.60;51935.47;5113812;27;20194;-83
2023/09/17 08:31:48;;;;;;;3.40;1.50;;;;;;;-145.69;43.41;51913.69;5117125;28;20260;-83
2023/09/17 08:34:15;;;;;;;5.97;1.90;;;;;;;-145.69;43.92;51911.69;5121161;28;20720;-83
2023/09/17 08:36:43;;;;;;;4.38;1.63;;;;;;;-145.69;44.16;51957.25;5117317;28;20254;-83
2023/09/17 08:39:11;;;;;;;6.18;2.20;;;;;;;-145.69;44.53;51927.53;5116835;28;20197;-82
2023/09/17 08:41:40;;;;;;;8.05;2.13;;;;;;;-145.69;43.47;51935.47;5119185;28;20197;-82
2023/09/17 08:44:07;;;;;;;3.78;1.75;;;;;;;-145.69;43.20;51953.28;5117086;28;20221;-82
2023/09/17 08:46:33;;;;;;;5.72;1.50;;;;;;;-145.69;42.54;51931.50;5116151;28;20204;-83
2023/09/17 08:49:01;;;;;;;3.55;1.50;;;;;;;-145.69;42.95;51945.34;5116815;28;20197;-82
2023/09/17 08:51:33;;;;;;;3.35;1.55;;;;;;;-145.69;43.19;51919.63;5120038;28;20201;-82
2023/09/17 08:54:06;;;;;;;5.03;1.45;;;;;;;-145.69;43.20;51919.63;5128249;28;20246;-83
2023/09/17 08:56:38;;;;;;;3.92;1.42;;;;;;;-145.69;42.83;51921.59;5117293;28;20201;-82
2023/09/17 08:59:23;;;;;;;2.08;1.33;;;;;;;-145.69;43.13;51943.38;5125303;28;20199;-82
2023/09/17 09:01:51;;;;;;;5.45;1.50;;;;;;;-145.69;42.55;51953.28;5118916;27;20284;-82
2023/09/17 09:04:20;;;;;;;6.75;1.50;;;;;;;-145.69;42.67;51931.50;5118395;28;20202;-82
2023/09/17 09:06:47;;;;;;;4.90;1.70;;;;;;;-145.69;42.66;51953.28;5118306;28;20205;-82
2023/09/17 09:09:16;;;;;;;3.10;1.40;;;;;;;-145.69;41.90;51915.66;5118672;27;20233;-82
2023/09/17 09:11:43;;;;;;;2.80;1.60;;;;;;;-145.69;42.38;51943.38;5133121;27;20196;-81
2023/09/17 09:14:10;;;;;;;6.53;1.17;;;;;;;-145.69;41.39;51937.44;5122156;27;20281;-81
2023/09/17 09:16:38;;;;;;;7.55;1.50;;;;;;;-145.69;42.73;51921.59;5138037;27;20197;-80
2023/09/17 09:19:07;;;;;;;3.83;1.40;;;;;;;-145.69;42.14;51901.78;5124387;27;20283;-83
2023/09/17 09:21:34;;;;;;;6.45;1.30;;;;;;;-145.69;44.04;51913.69;5118661;28;20198;-82
2023/09/17 09:24:02;;;;;;;3.33;1.40;;;;;;;-145.69;43.47;51935.47;5118158;28;20735;-83
2023/09/17 09:26:37;;;;;;;4.13;1.42;;;;;;;-145.69;43.07;51943.38;5117910;28;20648;-84
2023/09/17 09:29:08;;;;;;;10.73;1.42;;;;;;;-145.69;42.29;51933.47;5134368;27;20196;-82
2023/09/17 09:31:35;;;;;;;5.57;1.60;;;;;;;-145.69;42.92;51921.59;5113514;27;20227;-81
2023/09/17 09:34:05;;;;;;;5.82;1.38;;;;;;;-145.69;40.91;51909.72;5117229;28;20568;-81
2023/09/17 09:36:33;;;;;;;5.90;1.50;;;;;;;-145.69;40.85;51935.47;5116399;28;20204;-84
2023/09/17 09:39:02;;;;;;;5.05;1.20;;;;;;;-145.69;42.00;51961.19;5111676;28;20308;-81
2023/09/17 09:41:33;;;;;;;6.45;1.63;;;;;;;-145.69;40.80;51893.88;5095617;28;20198;-81
2023/09/17 09:44:01;;;;;;;4.20;1.30;;;;;;;-145.69;41.41;51941.41;5095716;28;20432;-83
2023/09/17 09:46:33;;;;;;;5.97;2.05;;;;;;;-145.69;41.35;51905.75;5096261;28;20290;-84
2023/09/17 09:49:04;;;;;;;4.15;1.23;;;;;;;-145.69;42.28;51889.91;5105302;27;20224;-83
2023/09/17 09:51:31;;;;;;;8.52;1.60;;;;;;;-145.69;39.32;51913.69;5137397;27;20208;-83
2023/09/17 09:53:58;;;;;;;3.42;1.05;;;;;;;-145.69;40.37;51921.59;5137279;27;20204;-84
2023/09/17 09:56:27;;;;;;;2.90;1.38;;;;;;;-145.69;41.24;51923.56;5137628;27;20301;-83
2023/09/17 09:58:55;;;;;;;6.60;1.10;;;;;;;-145.69;41.28;51885.94;5120535;27;20225;-81
2023/09/17 10:01:23;;;;;;;6.25;1.42;;;;;;;-145.69;40.25;51911.69;5117493;27;20201;-82
2023/09/17 10:04:00;;;;;;;2.13;1.20;;;;;;;-145.69;40.75;51887.94;5116395;28;20200;-82
2023/09/17 10:06:26;;;;;;;8.18;1.52;;;;;;;-145.69;39.67;51913.69;5123234;27;20265;-82
2023/09/17 10:08:54;;;;;;;6.90;1.63;;;;;;;-145.69;40.28;51921.59;5130869;27;20262;-82
2023/09/17 10:11:22;;;;;;;6.15;1.60;;;;;;;-145.69;40.45;51899.81;5116310;28;20284;-83
2023/09/17 10:14:04;;;;;;;6.30;1.33;;;;;;;-145.69;41.03;51895.84;5116455;28;20197;-82
2023/09/17 10:16:33;;;;;;;4.55;1.52;;;;;;;-145.69;39.73;51893.88;5102351;28;20198;-83
2023/09/17 10:19:02;;;;;;;5.60;1.50;;;;;;;-145.69;41.49;51874.06;5102606;27;20228;-81
2023/09/17 10:21:37;;;;;;;4.15;1.70;;;;;;;-145.69;40.34;51882.00;5113373;27;20239;-84
2023/09/17 10:24:04;;;;;;;5.35;1.30;;;;;;;-145.69;39.05;51878.03;5115581;28;20719;-82
2023/09/17 10:26:35;;;;;;;5.70;1.92;;;;;;;-145.69;39.49;51893.88;5115035;28;20522;-83
2023/09/17 10:29:04;;;;;;;4.60;1.70;;;;;;;-145.69;40.28;51870.13;5115998;27;20446;-83
2023/09/17 10:31:33;;;;;;;3.08;1.30;;;;;;;-145.69;39.45;51858.22;5116007;28;20201;-83
2023/09/17 10:34:05;;;;;;;6.25;1.42;;;;;;;-145.69;39.70;51885.94;5116431;27;20285;-85
2023/09/17 10:36:33;;;;;;;4.60;1.52;;;;;;;-145.69;39.67;51883.97;5116556;27;20193;-82
2023/09/17 10:39:00;;;;;;;4.68;1.10;;;;;;;-145.69;38.04;51893.88;5115411;28;20263;-82
2023/09/17 10:41:33;;;;;;;2.42;1.40;;;;;;;-145.69;39.21;51876.06;5117522;28;20557;-82
2023/09/17 10:44:02;;;;;;;6.97;1.27;;;;;;;-145.69;38.50;51878.03;5116748;27;20197;-82
2023/09/17 10:46:36;;;;;;;2.88;1.40;;;;;;;-145.69;38.42;51860.22;5097784;28;20198;-81
2023/09/17 10:49:03;;;;;;;4.93;1.60;;;;;;;-145.69;38.16;51872.09;5121447;27;20281;-80
2023/09/17 10:51:33;;;;;;;2.47;1.67;;;;;;;-145.69;38.34;51862.19;5098613;27;20234;-83
2023/09/17 10:54:02;;;;;;;4.18;1.85;;;;;;;-145.69;40.13;51882.00;5095707;28;20194;-81
2023/09/17 10:56:29;;;;;;;3.33;1.35;;;;;;;-145.69;39.19;51864.16;5099860;28;20258;-80
2023/09/17 10:58:56;;;;;;;2.08;1.40;;;;;;;-145.69;39.47;51876.06;5115185;28;20737;-81
2023/09/17 11:01:30;;;;;;;3.38;1.48;;;;;;;-145.69;38.83;51876.06;5116129;28;20236;-82
2023/09/17 11:04:10;;;;;;;4.88;1.40;;;;;;;-145.69;38.47;51866.16;5115811;28;20212;-83
2023/09/17 11:06:38;;;;;;;3.92;1.45;;;;;;;-145.69;40.16;51870.13;5116144;27;20193;-82
2023/09/17 11:09:08;;;;;;;3.10;1.20;;;;;;;-145.69;39.73;51874.06;5114870;28;20289;-82
2023/09/17 11:11:35;;;;;;;4.47;1.40;;;;;;;-145.69;39.14;51862.19;5114687;27;20201;-83
2023/09/17 11:14:04;;;;;;;6.32;1.73;;;;;;;-145.69;39.40;51830.50;5115310;28;20236;-82
2023/09/17 11:16:32;;;;;;;4.32;1.60;;;;;;;-145.69;39.23;51850.31;5115632;28;20614;-81
2023/09/17 11:19:09;;;;;;;3.75;1.50;;;;;;;-145.69;38.19;51866.16;5118434;27;20328;-84
2023/09/17 11:21:36;;;;;;;3.22;1.40;;;;;;;-145.69;37.77;51854.28;5113906;27;20710;-83